Time;durP1;ratioP1;P1;durP2;ratioP2;P2;SDS_P1;SDS_P2;PMS_P1;PMS_P2;Temp;Humidity;BMP_temperature;BMP_pressure;BME280_temperature;BME280_humidity;BME280_pressure;Samples;Min_cycle;Max_cycle;Signal;HPM_P1;HPM_P2
2022/04/17 00:02:06;;;;;;;6.07;4.28;;;;;;;7.58;62.89;103021.00;10381551;28;20048;-75
2022/04/17 00:07:06;;;;;;;7.60;4.32;;;;;;;7.56;62.88;103020.28;10380799;28;20038;-75
2022/04/17 00:12:07;;;;;;;5.45;3.10;;;;;;;7.42;64.06;103010.59;10363876;28;20046;-75
2022/04/17 00:17:07;;;;;;;6.38;5.80;;;;;;;7.31;65.11;103007.09;10363649;28;20147;-75
2022/04/17 00:22:08;;;;;;;5.20;4.68;;;;;;;7.26;65.31;103002.06;10381748;28;20470;-75
2022/04/17 00:27:09;;;;;;;15.00;4.38;;;;;;;7.16;66.14;102985.78;10381078;28;20030;-76
2022/04/17 00:32:12;;;;;;;4.78;4.28;;;;;;;7.12;66.42;102992.41;10361983;28;20140;-76
2022/04/17 00:37:13;;;;;;;5.85;4.82;;;;;;;7.05;67.14;102996.56;10378550;28;20105;-76
2022/04/17 00:42:13;;;;;;;8.95;5.07;;;;;;;7.01;66.85;102983.44;10379103;28;20492;-75
2022/04/17 00:47:16;;;;;;;5.22;4.70;;;;;;;6.98;66.65;102993.47;10361856;28;20517;-75
2022/04/17 00:52:19;;;;;;;7.10;4.93;;;;;;;6.97;66.80;102982.84;10362511;28;20121;-75
2022/04/17 00:57:19;;;;;;;5.05;4.35;;;;;;;6.89;67.36;102975.38;10381453;28;20030;-74
2022/04/17 01:02:20;;;;;;;4.95;4.10;;;;;;;6.80;67.94;102981.50;10347767;28;20046;-74
2022/04/17 01:07:23;;;;;;;4.80;4.40;;;;;;;6.75;67.86;102971.09;10380121;28;20413;-75
2022/04/17 01:12:24;;;;;;;5.55;5.05;;;;;;;6.67;68.50;102970.84;10361584;28;20565;-75
2022/04/17 01:17:24;;;;;;;6.18;5.40;;;;;;;6.64;68.76;102963.00;10361160;28;20153;-75
2022/04/17 01:22:25;;;;;;;6.43;5.82;;;;;;;6.50;69.94;102972.16;10378568;28;20040;-75
2022/04/17 01:27:25;;;;;;;5.45;4.88;;;;;;;6.36;71.28;102961.63;10377380;28;20029;-74
2022/04/17 01:32:26;;;;;;;6.13;5.55;;;;;;;6.33;71.24;102967.25;10379789;28;20072;-74
2022/04/17 01:37:26;;;;;;;8.63;5.68;;;;;;;6.32;69.96;102964.66;10379666;28;20520;-74
2022/04/17 01:42:26;;;;;;;7.93;6.72;;;;;;;6.31;70.04;102971.88;10361515;28;20470;-75
2022/04/17 01:47:27;;;;;;;7.20;6.50;;;;;;;6.24;70.67;102965.25;10377080;28;20101;-74
2022/04/17 01:52:27;;;;;;;7.30;6.40;;;;;;;6.22;69.89;102961.81;10377853;28;20049;-74
2022/04/17 01:57:28;;;;;;;6.97;5.78;;;;;;;6.18;71.10;102961.19;10344859;28;20057;-74
2022/04/17 02:02:28;;;;;;;6.03;5.45;;;;;;;6.13;70.63;102965.25;10378575;28;20034;-74
2022/04/17 02:07:28;;;;;;;9.68;6.85;;;;;;;6.13;69.81;102963.41;10380334;28;20092;-74
2022/04/17 02:12:29;;;;;;;10.52;7.72;;;;;;;6.07;70.21;102958.50;10377907;28;20045;-74
2022/04/17 02:17:30;;;;;;;10.75;6.85;;;;;;;6.07;69.57;102947.72;10344969;28;20034;-74
2022/04/17 02:22:31;;;;;;;6.72;6.13;;;;;;;6.13;68.65;102951.78;10376732;28;20040;-74
2022/04/17 02:27:32;;;;;;;10.05;7.45;;;;;;;6.03;68.79;102946.22;10378379;28;20122;-74
2022/04/17 02:32:32;;;;;;;8.90;7.22;;;;;;;5.91;69.87;102944.47;10379388;28;20050;-74
2022/04/17 02:37:36;;;;;;;9.85;7.03;;;;;;;5.93;68.34;102942.53;10379246;28;20045;-74
2022/04/17 02:42:37;;;;;;;7.85;7.07;;;;;;;5.83;69.12;102937.81;10379764;28;20085;-75
2022/04/17 02:47:43;;;;;;;6.82;6.07;;;;;;;5.77;68.83;102932.06;10378893;28;20092;-74
2022/04/17 02:52:44;;;;;;;12.93;7.57;;;;;;;5.65;69.78;102928.50;10363186;28;20048;-74
2022/04/17 02:57:45;;;;;;;7.70;7.00;;;;;;;5.62;69.75;102927.88;10361818;28;20454;-74
2022/04/17 03:08:12;;;;;;;7.93;7.22;;;;;;;5.49;70.29;102918.03;10379315;28;20038;-74
2022/04/17 03:13:12;;;;;;;7.22;6.47;;;;;;;5.48;70.49;102916.28;10380664;28;20034;-74
2022/04/17 03:18:13;;;;;;;10.13;7.15;;;;;;;5.54;69.25;102926.59;10380618;28;20037;-74
2022/04/17 03:23:14;;;;;;;7.70;6.78;;;;;;;5.48;69.66;102923.50;10361200;28;20474;-74
2022/04/17 03:28:15;;;;;;;8.55;7.30;;;;;;;5.51;68.73;102909.84;10378536;28;20042;-77
2022/04/17 03:33:15;;;;;;;10.80;7.00;;;;;;;5.45;69.25;102911.16;10377993;28;20057;-74
2022/04/17 03:38:15;;;;;;;12.32;7.88;;;;;;;5.43;69.57;102906.88;10379988;28;20100;-74
2022/04/17 03:43:16;;;;;;;9.93;8.05;;;;;;;5.41;69.36;102906.97;10380204;28;20045;-74
2022/04/17 03:48:18;;;;;;;19.50;8.07;;;;;;;5.47;68.31;102903.84;10362016;28;20107;-74
2022/04/17 03:53:18;;;;;;;8.90;7.63;;;;;;;5.50;67.90;102906.28;10379080;28;20038;-74
2022/04/17 03:58:19;;;;;;;10.43;8.27;;;;;;;5.50;67.62;102908.13;10361287;28;20042;-75
2022/04/17 04:03:19;;;;;;;12.45;7.97;;;;;;;5.41;67.92;102903.44;10361672;28;20485;-74
2022/04/17 04:08:19;;;;;;;10.65;8.13;;;;;;;5.33;68.11;102902.19;10379100;28;20038;-74
2022/04/17 04:13:20;;;;;;;9.88;7.70;;;;;;;5.32;68.82;102892.41;10366247;28;20042;-74
2022/04/17 04:18:21;;;;;;;7.65;6.93;;;;;;;5.27;68.85;102891.91;10368012;28;20034;-74
2022/04/17 04:23:22;;;;;;;10.07;7.25;;;;;;;5.15;70.08;102887.44;10384643;28;20026;-74
2022/04/17 04:28:36;;;;;;;12.05;7.10;;;;;;;5.15;70.01;102887.44;10384367;28;20041;-74
2022/04/17 04:33:40;;;;;;;9.55;7.15;;;;;;;5.18;69.04;102884.53;10368491;28;20041;-74
2022/04/17 04:38:41;;;;;;;8.13;6.97;;;;;;;5.15;68.94;102873.16;10383710;28;20029;-74
2022/04/17 04:43:41;;;;;;;13.68;8.63;;;;;;;5.08;69.29;102868.22;10380996;28;20042;-74
2022/04/17 04:54:02;;;;;;;14.70;7.95;;;;;;;4.98;69.35;102869.88;10382652;28;20034;-74
2022/04/17 04:59:04;;;;;;;10.90;8.63;;;;;;;4.98;68.95;102877.06;10382841;28;20030;-74
2022/04/17 05:04:04;;;;;;;8.82;7.95;;;;;;;4.89;69.28;102879.47;10384723;28;20050;-74
2022/04/17 05:09:05;;;;;;;20.80;10.07;;;;;;;4.87;68.08;102876.03;10382827;28;20080;-74
2022/04/17 05:14:06;;;;;;;11.63;8.70;;;;;;;4.82;70.49;102869.28;10381470;28;20042;-74
2022/04/17 05:19:20;;;;;;;11.63;9.02;;;;;;;4.95;71.27;102883.53;10381518;28;20042;-74
2022/04/17 05:24:21;;;;;;;14.32;8.13;;;;;;;5.04;70.69;102879.28;10381360;28;20037;-74
2022/04/17 05:29:21;;;;;;;8.75;7.93;;;;;;;5.11;70.67;102881.44;10379423;28;20054;-74
2022/04/17 05:34:21;;;;;;;9.70;8.70;;;;;;;5.20;70.22;102879.03;10380152;28;20069;-74
2022/04/17 05:39:22;;;;;;;8.15;7.38;;;;;;;5.32;69.55;102878.97;10360847;28;20034;-74
2022/04/17 05:44:22;;;;;;;14.85;8.77;;;;;;;5.46;69.03;102869.88;10378878;28;20382;-74
2022/04/17 05:49:23;;;;;;;9.73;8.77;;;;;;;6.14;68.84;102876.34;10379319;28;20092;-74
2022/04/17 05:54:24;;;;;;;9.60;7.82;;;;;;;8.19;62.42;102866.56;10361324;28;20038;-75
2022/04/17 05:59:24;;;;;;;7.97;7.25;;;;;;;9.49;58.34;102867.56;10360988;28;20466;-74
2022/04/17 06:04:25;;;;;;;8.88;7.25;;;;;;;10.24;54.30;102861.34;10361713;28;20045;-75
2022/04/17 06:09:25;;;;;;;16.05;7.15;;;;;;;10.38;52.56;102868.16;10380391;28;20030;-74
2022/04/17 06:14:26;;;;;;;8.45;7.20;;;;;;;10.96;52.04;102858.88;10379575;28;20354;-74
2022/04/17 06:19:26;;;;;;;8.38;7.55;;;;;;;11.29;50.37;102868.22;10378291;28;20030;-74
2022/04/17 06:24:26;;;;;;;6.70;5.88;;;;;;;11.77;50.01;102866.09;10379227;28;20473;-74
2022/04/17 06:29:27;;;;;;;8.88;6.85;;;;;;;12.10;48.25;102861.81;10377828;28;20058;-74
2022/04/17 06:34:27;;;;;;;11.77;6.95;;;;;;;12.38;47.21;102857.06;10374764;28;20042;-73
2022/04/17 06:39:27;;;;;;;10.45;6.57;;;;;;;12.70;46.16;102850.06;10359724;28;20129;-73
2022/04/17 06:44:28;;;;;;;11.70;7.07;;;;;;;13.01;45.46;102850.34;10376370;28;20041;-75
2022/04/17 06:49:28;;;;;;;7.10;6.40;;;;;;;13.44;44.83;102853.84;10324909;28;20054;-74
2022/04/17 06:54:29;;;;;;;6.22;5.72;;;;;;;13.98;43.64;102851.47;10375122;28;20038;-74
2022/04/17 06:59:29;;;;;;;6.68;5.72;;;;;;;14.49;43.24;102845.72;10358068;28;20037;-74
2022/04/17 07:04:29;;;;;;;6.78;6.05;;;;;;;14.79;42.18;102842.19;10359302;28;20030;-74
2022/04/17 07:09:30;;;;;;;5.78;5.13;;;;;;;15.04;39.99;102842.06;10374961;28;20497;-75
2022/04/17 07:14:30;;;;;;;5.82;4.80;;;;;;;14.78;40.01;102856.03;10374995;28;20041;-74
2022/04/17 07:19:31;;;;;;;5.45;4.70;;;;;;;15.22;38.89;102831.72;10375223;28;20092;-74
2022/04/17 07:24:31;;;;;;;5.78;5.15;;;;;;;15.40;38.08;102828.69;10358471;28;20049;-74
2022/04/17 07:29:31;;;;;;;7.75;5.63;;;;;;;16.06;39.73;102833.59;10373542;28;20125;-75
2022/04/17 07:34:32;;;;;;;6.38;5.38;;;;;;;16.66;37.78;102829.81;10374718;28;20389;-74
2022/04/17 07:39:32;;;;;;;11.43;5.20;;;;;;;17.05;38.95;102820.41;10375534;28;20037;-75
2022/04/17 07:44:33;;;;;;;6.25;5.18;;;;;;;17.35;35.09;102813.75;10359019;28;20037;-75
2022/04/17 07:49:33;;;;;;;5.38;4.28;;;;;;;17.65;34.41;102822.69;10348361;28;20034;-75
2022/04/17 07:54:34;;;;;;;5.35;4.95;;;;;;;17.57;32.54;102824.72;10383569;28;20381;-75
2022/04/17 07:59:34;;;;;;;7.13;5.20;;;;;;;17.96;33.16;102820.63;10381291;28;20069;-75
2022/04/17 08:04:34;;;;;;;7.00;5.50;;;;;;;18.10;34.92;102815.03;10380669;28;20062;-75
2022/04/17 08:09:35;;;;;;;5.88;5.25;;;;;;;18.66;32.29;102814.06;10381938;28;20026;-75
2022/04/17 08:14:35;;;;;;;5.47;4.85;;;;;;;18.74;35.79;102802.94;10381395;28;20033;-75
2022/04/17 08:19:36;;;;;;;5.30;4.90;;;;;;;18.95;32.41;102803.84;10382783;28;20041;-76
2022/04/17 08:24:36;;;;;;;5.30;4.90;;;;;;;19.21;34.01;102798.44;10363332;28;20484;-75
2022/04/17 08:29:36;;;;;;;4.78;4.32;;;;;;;19.54;31.41;102797.59;10380668;28;20406;-75
2022/04/17 08:34:37;;;;;;;6.13;4.60;;;;;;;19.81;30.10;102792.13;10363410;28;20037;-75
2022/04/17 08:39:37;;;;;;;6.80;4.78;;;;;;;19.59;30.98;102785.97;10362386;28;20048;-72
2022/04/17 08:44:37;;;;;;;6.15;5.60;;;;;;;19.94;29.37;102783.84;10379136;28;20045;-74
2022/04/17 08:49:38;;;;;;;4.13;3.83;;;;;;;19.50;30.12;102777.09;10339732;28;20046;-75
2022/04/17 08:54:38;;;;;;;4.63;4.22;;;;;;;20.26;29.18;102771.09;10378771;28;20474;-74
2022/04/17 08:59:39;;;;;;;5.03;4.53;;;;;;;20.44;28.97;102764.88;10360892;28;20381;-74
2022/04/17 09:04:42;;;;;;;4.97;4.47;;;;;;;20.56;28.34;102754.06;10346615;28;20385;-72
2022/04/17 09:09:52;;;;;;;5.53;5.05;;;;;;;20.56;27.96;102762.31;10345078;28;20034;-71
2022/04/17 09:14:56;;;;;;;6.72;4.75;;;;;;;20.10;28.23;102750.41;10378958;28;20033;-71
2022/04/17 09:19:56;;;;;;;5.28;4.78;;;;;;;20.08;29.42;102760.78;10380801;28;20022;-71
2022/04/17 09:24:56;;;;;;;5.35;4.85;;;;;;;20.26;28.06;102756.47;10379289;28;20034;-67
2022/04/17 09:29:57;;;;;;;5.25;4.55;;;;;;;20.54;26.63;102748.75;10360958;28;20498;-70
2022/04/17 09:34:57;;;;;;;6.57;4.45;;;;;;;20.31;28.39;102737.41;10360757;28;20398;-68
2022/04/17 09:40:06;;;;;;;4.45;4.05;;;;;;;20.60;27.55;102736.03;10377432;28;20104;-71
2022/04/17 09:45:07;;;;;;;5.07;4.25;;;;;;;20.70;27.31;102730.88;10359620;28;20044;-68
2022/04/17 09:50:08;;;;;;;9.02;5.68;;;;;;;20.54;26.91;102721.22;10359584;28;20033;-69
2022/04/17 09:55:09;;;;;;;4.45;4.05;;;;;;;20.55;29.49;102711.94;10376936;28;20381;-68
2022/04/17 10:00:16;;;;;;;4.95;4.55;;;;;;;21.04;25.06;102703.97;10359148;28;20048;-70
2022/04/17 10:05:18;;;;;;;4.10;3.80;;;;;;;21.42;26.99;102694.78;10359148;28;20065;-71
2022/04/17 10:10:18;;;;;;;4.55;4.15;;;;;;;21.17;26.24;102687.34;10376182;28;20160;-70
2022/04/17 10:15:18;;;;;;;6.13;5.10;;;;;;;21.50;25.28;102689.81;10376221;28;20104;-70
2022/04/17 10:20:19;;;;;;;4.25;3.95;;;;;;;21.89;26.63;102682.22;10376037;28;20050;-68
2022/04/17 10:25:22;;;;;;;5.38;4.82;;;;;;;21.96;26.61;102671.94;10292794;28;20053;-70
2022/04/17 10:31:13;;;;;;;8.63;5.57;;;;;;;22.14;26.15;102673.81;10358592;28;20177;-69
2022/04/17 10:36:22;;;;;;;5.40;4.90;;;;;;;22.35;24.21;102655.13;10374905;28;20031;-73
2022/04/17 10:41:23;;;;;;;5.63;4.75;;;;;;;22.14;23.77;102646.22;10375346;28;20029;-73
2022/04/17 10:46:23;;;;;;;5.45;4.85;;;;;;;21.64;25.00;102640.06;10342633;28;20036;-73
2022/04/17 10:51:24;;;;;;;7.38;4.10;;;;;;;21.68;24.42;102627.50;10374617;28;20115;-75
2022/04/17 10:56:25;;;;;;;6.72;4.28;;;;;;;22.04;24.64;102627.47;10372688;28;20045;-73
2022/04/17 11:01:44;;;;;;;5.18;4.65;;;;;;;21.58;25.05;102622.53;10375451;28;20423;-75
2022/04/17 11:06:45;;;;;;;5.10;3.92;;;;;;;21.58;24.23;102612.34;10375403;28;20037;-75
2022/04/17 11:11:46;;;;;;;4.32;3.88;;;;;;;21.17;23.75;102601.09;10374928;28;20038;-73
2022/04/17 11:16:56;;;;;;;4.00;2.75;;;;;;;21.95;23.36;102595.78;10340347;28;20037;-73
2022/04/17 11:21:59;;;;;;;7.53;5.18;;;;;;;21.77;26.25;102598.56;10346067;28;20049;-73
2022/04/17 11:27:00;;;;;;;4.20;3.90;;;;;;;21.90;25.03;102581.81;10334687;28;20041;-69
2022/04/17 11:32:01;;;;;;;4.65;3.80;;;;;;;21.46;25.47;102572.81;10365138;28;20497;-69
2022/04/17 11:37:04;;;;;;;4.97;4.57;;;;;;;22.26;24.45;102569.03;10349026;28;20079;-73
2022/04/17 11:42:07;;;;;;;4.18;3.85;;;;;;;21.78;24.74;102564.38;10364544;28;20033;-69
2022/04/17 11:47:10;;;;;;;8.48;4.28;;;;;;;21.94;24.96;102560.13;10365233;28;20038;-71
2022/04/17 11:52:18;;;;;;;4.50;4.10;;;;;;;21.71;25.71;102550.69;10364725;28;20363;-70
2022/04/17 11:57:19;;;;;;;7.32;4.05;;;;;;;21.55;25.46;102543.03;10366771;28;20037;-74
2022/04/17 12:02:20;;;;;;;4.22;3.75;;;;;;;21.26;26.77;102536.38;10352761;28;20033;-76
2022/04/17 12:07:24;;;;;;;5.40;4.90;;;;;;;21.46;26.07;102525.97;10351194;28;20030;-76
2022/04/17 12:12:32;;;;;;;5.95;3.22;;;;;;;21.90;25.91;102523.06;10334606;28;20034;-76
2022/04/17 12:17:33;;;;;;;4.45;4.05;;;;;;;21.91;25.49;102516.47;10347745;28;20033;-75
2022/04/17 12:22:34;;;;;;;6.10;4.68;;;;;;;22.12;25.71;102504.06;10380288;28;20037;-75
2022/04/17 12:27:35;;;;;;;4.72;3.92;;;;;;;21.74;25.02;102503.34;10379465;28;20091;-76
2022/04/17 12:32:42;;;;;;;4.95;4.18;;;;;;;21.65;24.27;102495.63;10363360;28;20108;-76
2022/04/17 12:37:43;;;;;;;4.90;4.50;;;;;;;21.50;25.25;102502.38;10284676;28;20042;-74
2022/04/17 12:42:47;;;;;;;4.97;4.45;;;;;;;22.02;25.76;102475.16;10338223;28;20042;-74
2022/04/17 12:48:04;;;;;;;5.85;4.05;;;;;;;22.06;24.95;102459.78;10289855;28;20486;-75
2022/04/17 12:53:04;;;;;;;;;;;;;;;21.89;25.26;102449.66;10322271;28;20054;-75
2022/04/17 12:58:06;;;;;;;5.13;4.57;;;;;;;21.97;24.88;102450.16;10337583;28;19949;-73
2022/04/17 13:03:13;;;;;;;5.22;3.92;;;;;;;21.56;25.82;102440.81;10322592;28;20042;-74
2022/04/17 13:08:18;;;;;;;4.85;4.28;;;;;;;21.29;25.18;102428.44;10320887;28;20026;-75
2022/04/17 13:13:35;;;;;;;4.30;3.88;;;;;;;20.98;25.51;102427.53;10304504;28;20031;-75
2022/04/17 13:18:38;;;;;;;5.05;3.78;;;;;;;21.01;25.04;102409.72;10337506;28;20447;-76
2022/04/17 13:23:39;;;;;;;3.53;3.33;;;;;;;21.35;24.80;102406.34;10321810;28;20046;-75
2022/04/17 13:28:40;;;;;;;3.53;3.08;;;;;;;21.14;24.75;102402.13;10323002;28;20450;-73
2022/04/17 13:33:41;;;;;;;4.30;4.00;;;;;;;21.28;26.01;102390.91;10306697;28;20034;-75
2022/04/17 13:38:42;;;;;;;3.45;3.05;;;;;;;21.43;25.16;102380.34;10320605;28;20084;-76
2022/04/17 13:43:42;;;;;;;2.92;2.72;;;;;;;21.18;25.52;102360.34;10304082;28;20030;-72
2022/04/17 13:48:43;;;;;;;4.05;3.75;;;;;;;21.13;26.49;102361.88;10337312;28;20030;-73
2022/04/17 13:53:45;;;;;;;4.18;3.70;;;;;;;21.18;24.99;102338.28;10319123;28;20050;-74
2022/04/17 13:58:45;;;;;;;5.10;4.40;;;;;;;20.80;25.86;102353.19;10318852;28;20489;-76
2022/04/17 14:03:47;;;;;;;4.95;4.55;;;;;;;20.62;25.81;102343.88;10304026;28;20121;-73
2022/04/17 14:08:49;;;;;;;10.23;3.42;;;;;;;20.62;25.86;102338.38;10319034;28;20034;-73
2022/04/17 14:13:49;;;;;;;6.40;4.47;;;;;;;20.51;25.81;102339.13;10319782;28;20046;-73
2022/04/17 14:18:49;;;;;;;4.03;3.22;;;;;;;20.37;26.45;102323.81;10318332;28;20120;-73
2022/04/17 14:23:50;;;;;;;4.05;3.65;;;;;;;20.20;26.92;102305.16;10334078;28;20074;-73
2022/04/17 14:28:50;;;;;;;2.70;2.58;;;;;;;20.54;27.41;102296.56;10285333;28;20066;-74
2022/04/17 14:33:54;;;;;;;11.60;3.55;;;;;;;20.59;26.79;102292.06;10332600;28;20065;-74
2022/04/17 14:38:55;;;;;;;5.65;3.55;;;;;;;20.49;26.35;102294.47;10317795;28;20073;-75
2022/04/17 14:43:56;;;;;;;4.05;3.05;;;;;;;20.20;26.27;102280.41;10334714;28;20033;-73
2022/04/17 14:49:01;;;;;;;2.67;2.45;;;;;;;20.21;27.90;102282.09;10322802;28;20051;-74
2022/04/17 14:54:01;;;;;;;3.78;3.33;;;;;;;19.89;26.52;102269.53;10319396;28;20394;-74
2022/04/17 14:59:02;;;;;;;3.90;3.60;;;;;;;19.72;26.57;102267.34;10304321;28;20042;-74
2022/04/17 15:04:03;;;;;;;4.07;3.13;;;;;;;19.37;28.05;102250.50;10318162;28;20023;-74
2022/04/17 15:09:03;;;;;;;3.72;2.58;;;;;;;18.93;28.36;102248.69;10317351;28;20038;-74
2022/04/17 15:14:04;;;;;;;4.25;3.95;;;;;;;18.40;27.44;102238.78;10334438;28;20049;-73
2022/04/17 15:19:05;;;;;;;3.75;3.33;;;;;;;18.32;28.56;102222.59;10316859;28;20088;-74
2022/04/17 15:24:05;;;;;;;4.05;3.05;;;;;;;17.99;28.41;102215.28;10316265;28;20084;-74
2022/04/17 15:29:06;;;;;;;2.88;2.50;;;;;;;17.81;29.39;102221.47;10332510;28;20065;-74
2022/04/17 15:34:10;;;;;;;2.88;2.67;;;;;;;17.85;30.24;102211.75;10315633;28;20076;-73
2022/04/17 15:39:11;;;;;;;4.40;3.55;;;;;;;17.65;29.63;102202.69;10317310;28;20042;-73
2022/04/17 15:49:30;;;;;;;8.70;3.10;;;;;;;17.60;29.76;102186.88;10318816;28;20038;-74
2022/04/17 15:54:31;;;;;;;3.85;3.53;;;;;;;17.58;30.64;102188.13;10300059;28;20034;-74
2022/04/17 15:59:31;;;;;;;4.03;3.45;;;;;;;17.54;30.59;102175.94;10332913;28;20041;-73
2022/04/17 16:04:31;;;;;;;3.33;2.95;;;;;;;17.47;30.29;102173.22;10300039;28;20478;-73
2022/04/17 16:09:32;;;;;;;3.47;2.60;;;;;;;17.29;30.08;102173.84;10324327;28;20034;-74
2022/04/17 16:14:32;;;;;;;6.60;3.40;;;;;;;17.29;31.31;102165.63;10340198;28;20065;-74
2022/04/17 16:19:33;;;;;;;3.08;2.88;;;;;;;17.33;32.37;102164.19;10324015;28;20046;-73
2022/04/17 16:24:33;;;;;;;5.95;3.25;;;;;;;17.28;32.29;102161.22;10323709;28;20348;-74
2022/04/17 16:29:34;;;;;;;3.15;2.83;;;;;;;17.20;31.78;102154.06;10338876;28;20061;-73
2022/04/17 16:34:34;;;;;;;2.72;2.53;;;;;;;17.22;31.90;102153.84;10340304;28;20034;-74
2022/04/17 16:39:36;;;;;;;10.88;3.03;;;;;;;17.10;31.97;102142.72;10306364;28;20509;-73
2022/04/17 16:44:36;;;;;;;2.88;2.67;;;;;;;17.09;31.90;102141.00;10321909;28;20438;-74
2022/04/17 16:49:36;;;;;;;9.32;3.50;;;;;;;17.13;31.83;102135.94;10321618;28;20038;-73
2022/04/17 16:54:39;;;;;;;2.63;2.42;;;;;;;17.06;32.06;102130.47;10338356;28;20030;-73
2022/04/17 16:59:40;;;;;;;5.13;2.50;;;;;;;16.98;32.54;102127.97;10322162;28;20041;-73
2022/04/17 17:04:41;;;;;;;7.68;3.03;;;;;;;16.89;32.20;102108.16;10321166;28;20065;-73
2022/04/17 17:09:43;;;;;;;3.25;3.00;;;;;;;16.88;31.77;102111.09;10337131;28;20031;-73
2022/04/17 17:14:43;;;;;;;2.30;2.20;;;;;;;16.80;31.94;102095.75;10337460;28;20050;-73
2022/04/17 17:19:44;;;;;;;5.70;4.28;;;;;;;16.76;32.63;102096.38;10337921;28;20038;-74
2022/04/17 17:24:45;;;;;;;5.07;3.28;;;;;;;16.74;33.13;102091.09;10320558;28;20541;-74
2022/04/17 17:29:45;;;;;;;3.65;2.95;;;;;;;16.62;34.27;102096.31;10322006;28;20054;-73
2022/04/17 17:34:46;;;;;;;3.40;3.10;;;;;;;16.56;33.69;102080.78;10339314;28;20484;-73
2022/04/17 17:39:46;;;;;;;4.88;3.20;;;;;;;16.49;34.29;102082.63;10339979;28;20414;-74
2022/04/17 17:44:47;;;;;;;2.75;2.55;;;;;;;16.45;34.95;102084.94;10343638;28;20034;-73
2022/04/17 17:49:47;;;;;;;5.35;3.63;;;;;;;16.34;35.53;102082.84;10325226;28;20061;-74
2022/04/17 17:54:50;;;;;;;10.27;4.88;;;;;;;16.32;36.42;102089.56;10321162;28;20034;-73
2022/04/17 17:59:50;;;;;;;3.28;3.03;;;;;;;16.17;37.03;102092.44;10319045;28;20129;-73
2022/04/17 18:04:51;;;;;;;5.03;2.78;;;;;;;16.14;37.43;102088.22;10337955;28;20056;-74
2022/04/17 18:15:11;;;;;;;13.13;4.55;;;;;;;15.78;39.42;102078.44;10321969;28;20046;-73
2022/04/17 18:20:13;;;;;;;7.57;3.42;;;;;;;15.69;40.05;102087.84;10302449;28;20089;-73
2022/04/17 18:25:13;;;;;;;8.35;4.20;;;;;;;15.52;40.68;102081.84;10336552;28;20066;-73
2022/04/17 18:30:14;;;;;;;7.18;4.25;;;;;;;15.42;40.60;102086.81;10317193;28;20405;-73
2022/04/17 18:35:14;;;;;;;4.18;3.72;;;;;;;15.31;41.21;102079.19;10334962;28;20074;-73
2022/04/17 18:40:14;;;;;;;4.00;3.58;;;;;;;15.12;42.18;102075.28;10285733;28;20137;-74
2022/04/17 18:45:15;;;;;;;4.32;3.53;;;;;;;14.99;42.55;102076.03;10317457;28;20074;-73
2022/04/17 18:50:16;;;;;;;5.03;3.95;;;;;;;14.87;42.87;102085.81;10333485;28;20116;-73
2022/04/17 18:55:17;;;;;;;7.70;4.10;;;;;;;14.72;43.44;102074.97;10334081;28;20117;-73
2022/04/17 19:00:17;;;;;;;4.05;3.63;;;;;;;14.49;44.87;102077.03;10300872;28;20031;-73
2022/04/17 19:05:17;;;;;;;4.82;4.38;;;;;;;14.41;45.29;102073.38;10333807;28;20121;-73
2022/04/17 19:10:18;;;;;;;4.35;3.72;;;;;;;14.24;45.95;102073.84;10334362;28;20078;-74
2022/04/17 19:15:18;;;;;;;4.85;4.43;;;;;;;14.07;47.70;102079.53;10334832;28;20031;-73
2022/04/17 19:20:19;;;;;;;7.35;4.53;;;;;;;13.93;48.11;102073.06;10316488;28;20030;-73
2022/04/17 19:25:19;;;;;;;7.13;4.88;;;;;;;13.74;48.95;102070.94;10316454;28;20089;-73
2022/04/17 19:30:21;;;;;;;4.97;4.20;;;;;;;13.68;49.18;102071.69;10332990;28;20050;-73
2022/04/17 19:35:23;;;;;;;12.13;5.22;;;;;;;13.60;49.34;102077.25;10317917;28;20034;-73
2022/04/17 19:40:23;;;;;;;6.03;4.95;;;;;;;13.51;50.00;102070.22;10319483;28;20122;-73
2022/04/17 19:45:25;;;;;;;6.47;5.28;;;;;;;13.38;49.57;102077.16;10324774;28;20117;-73
2022/04/17 19:50:25;;;;;;;4.75;4.28;;;;;;;13.37;49.01;102069.16;10324962;28;20038;-73
2022/04/17 19:55:26;;;;;;;7.65;5.63;;;;;;;13.24;49.33;102062.53;10323961;28;20039;-73
2022/04/17 20:00:26;;;;;;;4.97;4.47;;;;;;;13.18;49.86;102060.53;10323121;28;20101;-73
2022/04/17 20:05:27;;;;;;;6.93;5.00;;;;;;;13.08;49.72;102056.38;10339491;28;20034;-73
2022/04/17 20:10:28;;;;;;;5.82;5.13;;;;;;;12.96;50.10;102058.72;10338863;28;20498;-73
2022/04/17 20:15:28;;;;;;;7.82;5.78;;;;;;;12.91;49.17;102061.13;10340875;28;20041;-73
2022/04/17 20:20:28;;;;;;;7.32;5.90;;;;;;;12.77;49.27;102060.06;10345064;28;20093;-73
2022/04/17 20:25:29;;;;;;;6.40;5.88;;;;;;;12.59;49.16;102046.78;10324395;28;20467;-73
2022/04/17 20:30:29;;;;;;;7.60;5.63;;;;;;;12.45;49.99;102047.59;10323605;28;20047;-73
2022/04/17 20:35:30;;;;;;;6.22;5.45;;;;;;;12.32;51.67;102040.06;10340818;28;20517;-73
2022/04/17 20:40:30;;;;;;;9.18;6.50;;;;;;;12.26;52.62;102044.34;10322298;28;20046;-74
2022/04/17 20:50:50;;;;;;;5.40;4.88;;;;;;;12.12;52.83;102033.41;10338549;28;20035;-74
2022/04/17 20:55:50;;;;;;;5.30;4.30;;;;;;;12.04;52.56;102034.31;10306519;28;20038;-73
2022/04/17 21:00:51;;;;;;;7.82;5.90;;;;;;;11.96;51.67;102028.91;10337480;28;20435;-73
2022/04/17 21:05:52;;;;;;;6.32;5.78;;;;;;;11.86;50.26;102031.88;10306726;28;20038;-74
2022/04/17 21:10:53;;;;;;;9.75;5.55;;;;;;;11.67;52.55;102030.41;10321360;28;20073;-74
2022/04/17 21:15:53;;;;;;;8.40;6.75;;;;;;;11.61;51.18;102023.84;10339389;28;20062;-74
2022/04/17 21:20:53;;;;;;;8.68;6.53;;;;;;;11.48;52.46;102023.53;10338117;28;20046;-74
2022/04/17 21:25:54;;;;;;;13.20;6.22;;;;;;;11.35;52.29;102015.13;10319802;28;20117;-73
2022/04/17 21:30:54;;;;;;;10.02;5.63;;;;;;;11.18;54.75;102020.59;10321699;28;20050;-73
2022/04/17 21:35:55;;;;;;;7.13;5.40;;;;;;;11.11;53.91;102014.19;10320235;28;20069;-73
2022/04/17 21:40:55;;;;;;;6.18;4.90;;;;;;;11.07;52.74;102012.84;10319949;28;20086;-73
2022/04/17 21:45:56;;;;;;;7.15;5.38;;;;;;;10.99;52.06;102015.56;10303769;28;20030;-73
2022/04/17 21:50:56;;;;;;;8.90;6.38;;;;;;;10.93;52.39;102013.53;10321294;28;20043;-73
2022/04/17 21:55:56;;;;;;;6.90;6.18;;;;;;;10.88;52.25;102007.78;10338693;28;20042;-74
2022/04/17 22:06:16;;;;;;;8.98;6.63;;;;;;;10.58;52.47;102007.50;10341277;28;20035;-73
2022/04/17 22:11:16;;;;;;;15.52;5.97;;;;;;;10.54;52.68;102002.59;10336466;28;20474;-73
2022/04/17 22:16:17;;;;;;;6.85;5.97;;;;;;;10.47;56.17;102002.44;10319920;28;20124;-73
2022/04/17 22:21:17;;;;;;;6.72;6.07;;;;;;;10.46;56.22;101987.19;10318883;28;20053;-73
2022/04/17 22:26:17;;;;;;;15.50;7.15;;;;;;;10.43;55.63;101995.66;10335266;28;20026;-72
2022/04/17 22:31:18;;;;;;;8.07;6.47;;;;;;;10.30;56.06;101988.03;10336046;28;20058;-72
2022/04/17 22:36:18;;;;;;;7.60;6.55;;;;;;;10.24;56.83;101986.84;10318516;28;20542;-73
2022/04/17 22:41:18;;;;;;;10.90;7.07;;;;;;;10.19;57.15;101983.78;10334531;28;20122;-73
2022/04/17 22:46:19;;;;;;;14.52;7.15;;;;;;;10.14;57.34;101978.00;10318038;28;20029;-73
2022/04/17 22:51:20;;;;;;;10.48;8.73;;;;;;;10.11;56.42;101967.53;10335145;28;20467;-73
2022/04/17 22:56:21;;;;;;;10.85;8.27;;;;;;;9.99;55.28;101964.31;10334688;28;20117;-73
2022/04/17 23:01:22;;;;;;;10.00;6.90;;;;;;;9.90;56.83;101959.06;10335371;28;20042;-73
2022/04/17 23:06:23;;;;;;;12.05;7.93;;;;;;;9.85;56.66;101961.41;10338366;28;20435;-72
2022/04/17 23:11:23;;;;;;;8.43;7.20;;;;;;;9.75;57.35;101962.41;10319436;28;20041;-73
2022/04/17 23:16:23;;;;;;;9.30;6.75;;;;;;;9.69;58.49;101951.41;10338601;28;20500;-72
2022/04/17 23:21:24;;;;;;;9.73;7.63;;;;;;;9.70;59.08;101955.81;10342605;28;20046;-73
2022/04/17 23:26:25;;;;;;;15.90;7.60;;;;;;;9.68;59.72;101955.13;10343796;28;20034;-73
2022/04/17 23:31:25;;;;;;;9.52;8.10;;;;;;;9.67;59.04;101951.59;10326596;28;20072;-72
2022/04/17 23:36:26;;;;;;;11.75;7.28;;;;;;;9.62;57.23;101953.09;10343125;28;20086;-73
2022/04/17 23:41:27;;;;;;;9.18;7.43;;;;;;;9.47;58.63;101948.31;10308747;28;20042;-73